createdAt,value
2023-04-12T00:00:22.953Z,4.95
2023-04-12T00:03:00.420Z,4.82
2023-04-12T00:05:28.404Z,5.68
2023-04-12T00:08:02.550Z,5.60
2023-04-12T00:10:29.759Z,5.75
2023-04-12T00:12:56.888Z,5.95
2023-04-12T00:15:30.365Z,5.85
2023-04-12T00:17:57.661Z,4.22
2023-04-12T00:20:31.414Z,4.15
2023-04-12T00:22:58.566Z,5.10
2023-04-12T00:25:26.165Z,4.25
2023-04-12T00:30:26.601Z,4.53
2023-04-12T00:33:00.450Z,5.70
2023-04-12T00:35:27.762Z,4.15
2023-04-12T00:38:01.483Z,5.07
2023-04-12T00:40:28.657Z,5.28
2023-04-12T00:42:56.767Z,4.82
2023-04-12T00:45:30.503Z,5.00
2023-04-12T00:47:57.759Z,4.30
2023-04-12T00:50:32.400Z,3.72
2023-04-12T00:52:59.552Z,4.55
2023-04-12T00:55:26.655Z,5.97
2023-04-12T00:58:00.484Z,4.45
2023-04-12T01:00:27.833Z,4.50
2023-04-12T01:03:01.619Z,5.68
2023-04-12T01:05:29.413Z,5.53
2023-04-12T01:08:08.479Z,4.93
2023-04-12T01:10:50.571Z,5.25
2023-04-12T01:13:27.506Z,5.28
2023-04-12T01:16:17.878Z,5.75
2023-04-12T01:18:57.393Z,5.53
2023-04-12T01:21:43.056Z,4.97
2023-04-12T01:24:26.399Z,5.38
2023-04-12T01:26:57.702Z,6.57
2023-04-12T01:29:38.522Z,7.70
2023-04-12T01:32:12.667Z,7.50
2023-04-12T01:34:46.423Z,7.70
2023-04-12T01:37:13.831Z,6.90
2023-04-12T01:39:41.366Z,7.70
2023-04-12T01:42:15.544Z,8.75
2023-04-12T01:44:42.737Z,7.50
2023-04-12T01:47:16.429Z,5.85
2023-04-12T01:49:54.691Z,7.82
2023-04-12T01:55:06.298Z,7.38
2023-04-12T01:57:34.302Z,7.82
2023-04-12T02:00:13.307Z,8.63
2023-04-12T02:02:41.157Z,7.85
2023-04-12T02:05:16.351Z,7.32
2023-04-12T02:07:44.208Z,7.45
2023-04-12T02:10:15.300Z,8.93
2023-04-12T02:12:49.405Z,8.68
2023-04-12T02:15:16.584Z,9.13
2023-04-12T02:17:50.481Z,7.50
2023-04-12T02:20:18.625Z,6.78
2023-04-12T02:22:46.172Z,8.13
2023-04-12T02:28:08.325Z,8.85
2023-04-12T02:30:42.542Z,9.30
2023-04-12T02:33:09.929Z,7.07
2023-04-12T02:35:37.519Z,8.60
2023-04-12T02:38:14.746Z,9.93
2023-04-12T02:40:42.271Z,5.83
2023-04-12T02:43:09.757Z,8.45
2023-04-12T02:45:43.492Z,17.58
2023-04-12T02:48:10.820Z,19.73
2023-04-12T02:50:45.530Z,7.88
2023-04-12T02:53:12.703Z,9.25
2023-04-12T02:55:40.459Z,14.40
2023-04-12T02:58:14.402Z,8.05
2023-04-12T03:00:43.792Z,8.80
2023-04-12T03:03:17.659Z,8.13
2023-04-12T03:05:47.222Z,8.70
2023-04-12T03:08:14.835Z,22.42
2023-04-12T03:13:15.722Z,7.93
2023-04-12T03:15:52.536Z,9.13
2023-04-12T03:18:20.890Z,7.45
2023-04-12T03:20:48.386Z,7.80
2023-04-12T03:23:22.430Z,9.30
2023-04-12T03:25:49.658Z,10.45
2023-04-12T03:28:23.463Z,10.77
2023-04-12T03:30:50.695Z,7.43
2023-04-12T03:33:24.470Z,7.65
2023-04-12T03:35:51.769Z,11.98
2023-04-12T03:38:18.906Z,6.57
2023-04-12T03:40:52.435Z,11.15
2023-04-12T03:43:19.597Z,12.55
2023-04-12T03:45:53.539Z,6.00
2023-04-12T03:48:20.931Z,8.25
2023-04-12T03:50:48.442Z,5.65
2023-04-12T03:55:49.663Z,6.90
2023-04-12T03:58:25.524Z,8.73
2023-04-12T04:00:53.291Z,10.25
2023-04-12T04:03:22.829Z,9.10
2023-04-12T04:05:57.537Z,7.15
2023-04-12T04:08:24.680Z,4.60
2023-04-12T04:10:58.655Z,4.68
2023-04-12T04:13:25.816Z,5.57
2023-04-12T04:16:06.619Z,4.68
2023-04-12T04:18:36.001Z,4.43
2023-04-12T04:21:03.345Z,5.35
2023-04-12T04:23:45.570Z,4.65
2023-04-12T04:26:13.780Z,5.00
2023-04-12T04:29:00.633Z,13.48
2023-04-12T04:31:27.927Z,9.60
2023-04-12T04:33:55.518Z,5.50
2023-04-12T04:36:29.409Z,4.78
2023-04-12T04:38:57.410Z,8.60
2023-04-12T04:41:31.671Z,4.70
2023-04-12T04:44:00.512Z,5.15
2023-04-12T04:46:30.397Z,7.85
2023-04-12T04:49:05.455Z,5.85
2023-04-12T04:51:32.707Z,5.03
2023-04-12T04:54:06.455Z,4.97
2023-04-12T04:56:33.764Z,7.88
2023-04-12T04:59:02.667Z,3.60
2023-04-12T05:01:36.620Z,4.53
2023-04-12T05:04:04.275Z,4.90
2023-04-12T05:09:05.745Z,4.13
2023-04-12T05:11:32.893Z,5.18
2023-04-12T05:14:07.461Z,4.10
2023-04-12T05:16:34.611Z,3.80
2023-04-12T05:19:08.485Z,3.28
2023-04-12T05:21:35.802Z,3.88
2023-04-12T05:24:02.994Z,5.50
2023-04-12T05:26:36.509Z,4.70
2023-04-12T05:29:10.468Z,4.97
2023-04-12T05:31:44.486Z,4.68
2023-04-12T05:34:11.624Z,3.67
2023-04-12T05:36:38.971Z,4.00
2023-04-12T05:39:12.563Z,3.70
2023-04-12T05:41:39.710Z,5.13
2023-04-12T05:44:06.812Z,6.00
2023-04-12T05:46:40.488Z,6.65
2023-04-12T05:49:07.971Z,7.18
2023-04-12T05:51:42.484Z,7.47
2023-04-12T05:54:10.720Z,7.72
2023-04-12T05:56:37.897Z,5.68
2023-04-12T05:59:11.438Z,6.35
2023-04-12T06:01:42.581Z,5.53
2023-04-12T06:04:16.787Z,6.47
2023-04-12T06:06:44.257Z,5.63
2023-04-12T06:09:11.481Z,6.53
2023-04-12T06:11:45.478Z,6.70
2023-04-12T06:14:12.633Z,6.38
2023-04-12T06:16:46.573Z,6.60
2023-04-12T06:19:13.867Z,6.45
2023-04-12T06:21:41.192Z,6.15
2023-04-12T06:24:17.385Z,6.05
2023-04-12T06:26:46.949Z,6.13
2023-04-12T06:29:24.960Z,6.78
2023-04-12T06:31:58.478Z,6.40
2023-04-12T06:34:34.057Z,6.03
2023-04-12T06:37:02.179Z,5.85
2023-04-12T06:39:29.258Z,5.38
2023-04-12T06:42:04.500Z,5.75
2023-04-12T06:44:33.292Z,5.70
2023-04-12T06:47:00.972Z,5.43
2023-04-12T06:49:34.469Z,5.15
2023-04-12T06:52:01.721Z,4.60
2023-04-12T06:54:35.425Z,4.35
2023-04-12T06:57:02.679Z,3.97
2023-04-12T06:59:36.522Z,3.30
2023-04-12T07:02:03.876Z,3.65
2023-04-12T07:04:31.391Z,3.30
2023-04-12T07:07:05.552Z,2.88
2023-04-12T07:09:32.708Z,3.15
2023-04-12T07:12:01.049Z,3.00
2023-04-12T07:14:35.453Z,2.63
2023-04-12T07:17:02.844Z,2.50
2023-04-12T07:19:37.561Z,3.10
2023-04-12T07:22:04.827Z,2.80
2023-04-12T07:24:31.907Z,2.40
2023-04-12T07:27:05.511Z,3.25
2023-04-12T07:29:52.386Z,2.50
2023-04-12T07:32:26.789Z,2.75
2023-04-12T07:34:54.122Z,2.20
2023-04-12T07:37:21.267Z,2.00
2023-04-12T07:39:54.471Z,2.60
2023-04-12T07:42:21.729Z,1.70
2023-04-12T07:44:55.476Z,1.98
2023-04-12T07:47:22.669Z,2.13
2023-04-12T07:49:50.042Z,2.25
2023-04-12T07:52:23.454Z,1.70
2023-04-12T07:54:50.965Z,1.60
2023-04-12T07:59:51.691Z,1.50
2023-04-12T08:02:31.739Z,1.33
2023-04-12T08:05:01.921Z,2.00
2023-04-12T08:07:29.382Z,2.00
2023-04-12T08:10:03.587Z,1.92
2023-04-12T08:12:30.976Z,1.40
2023-04-12T08:15:04.650Z,2.00
2023-04-12T08:17:31.995Z,1.85
2023-04-12T08:19:59.124Z,1.38
2023-04-12T08:22:32.514Z,2.15
2023-04-12T08:24:59.596Z,2.00
2023-04-12T08:27:27.054Z,1.58
2023-04-12T08:30:00.481Z,1.48
2023-04-12T08:32:27.598Z,1.67
2023-04-12T08:35:02.693Z,1.63
2023-04-12T08:37:29.872Z,2.15
2023-04-12T08:40:11.550Z,1.80
2023-04-12T08:42:39.089Z,2.13
2023-04-12T08:47:41.496Z,1.73
2023-04-12T08:50:15.502Z,2.08
2023-04-12T08:52:50.607Z,1.52
2023-04-12T08:55:17.783Z,1.70
2023-04-12T08:57:45.275Z,1.85
2023-04-12T09:00:24.392Z,1.83
2023-04-12T09:02:51.867Z,1.95
2023-04-12T09:05:25.825Z,1.58
2023-04-12T09:07:53.174Z,1.67
2023-04-12T09:10:37.557Z,1.63
2023-04-12T09:13:12.441Z,1.80
2023-04-12T09:15:55.553Z,1.55
2023-04-12T09:18:23.843Z,2.25
2023-04-12T09:20:51.292Z,2.10
2023-04-12T09:23:28.494Z,2.08
2023-04-12T09:25:56.078Z,1.60
2023-04-12T09:31:04.548Z,1.83
2023-04-12T09:33:45.536Z,2.45
2023-04-12T09:36:17.490Z,2.00
2023-04-12T09:39:06.502Z,1.98
2023-04-12T09:41:40.615Z,2.00
2023-04-12T09:44:14.548Z,2.33
2023-04-12T09:46:51.951Z,1.40
2023-04-12T09:49:25.593Z,2.05
2023-04-12T09:51:52.858Z,1.38
2023-04-12T09:54:20.042Z,2.50
2023-04-12T09:56:55.010Z,1.80
2023-04-12T09:59:23.164Z,1.92
2023-04-12T10:01:57.618Z,1.65
2023-04-12T10:04:25.071Z,2.20
2023-04-12T10:09:25.819Z,1.70
2023-04-12T10:11:53.264Z,2.08
2023-04-12T10:14:28.499Z,1.73
2023-04-12T10:16:59.314Z,1.90
2023-04-12T10:19:33.620Z,2.05
2023-04-12T10:22:02.122Z,1.52
2023-04-12T10:24:36.597Z,1.98
2023-04-12T10:27:04.579Z,1.67
2023-04-12T10:29:47.587Z,2.10
2023-04-12T10:32:22.960Z,2.15
2023-04-12T10:35:00.545Z,1.88
2023-04-12T10:37:46.412Z,1.90
2023-04-12T10:40:26.624Z,1.92
2023-04-12T10:43:12.492Z,1.80
2023-04-12T10:45:46.771Z,1.58
2023-04-12T10:48:32.744Z,1.77
2023-04-12T10:51:33.616Z,1.90
2023-04-12T10:54:09.720Z,2.17
2023-04-12T10:56:47.547Z,1.80
2023-04-12T10:59:16.208Z,2.45
2023-04-12T11:02:10.819Z,2.00
2023-04-12T11:04:38.316Z,1.73
2023-04-12T11:07:17.737Z,1.55
2023-04-12T11:09:44.942Z,1.40
2023-04-12T11:12:13.475Z,2.13
2023-04-12T11:14:56.545Z,1.60
2023-04-12T11:17:24.469Z,1.90
2023-04-12T11:20:03.616Z,2.08
2023-04-12T11:22:31.982Z,2.15
2023-04-12T11:25:06.601Z,1.58
2023-04-12T11:27:34.471Z,2.00
2023-04-12T11:30:15.694Z,2.00
2023-04-12T11:32:45.537Z,2.78
2023-04-12T11:35:12.703Z,1.73
2023-04-12T11:37:46.551Z,2.03
2023-04-12T11:40:13.893Z,1.95
2023-04-12T11:42:47.748Z,1.63
2023-04-12T11:45:19.557Z,1.55
2023-04-12T11:47:46.863Z,1.88
2023-04-12T11:50:23.677Z,1.95
2023-04-12T11:52:50.997Z,1.90
2023-04-12T11:55:28.609Z,2.13
2023-04-12T11:57:56.065Z,1.40
2023-04-12T12:00:25.483Z,1.95
2023-04-12T12:03:07.652Z,1.63
2023-04-12T12:05:37.862Z,1.23
2023-04-12T12:08:14.609Z,2.15
2023-04-12T12:10:49.129Z,1.60
2023-04-12T12:13:29.606Z,1.52
2023-04-12T12:16:03.508Z,1.23
2023-04-12T12:18:37.801Z,1.08
2023-04-12T12:21:05.007Z,1.75
2023-04-12T13:26:56.261Z,1.90
2023-04-12T13:29:30.320Z,1.73
2023-04-12T13:31:57.582Z,2.50
2023-04-12T13:34:24.745Z,1.50
2023-04-12T13:36:58.328Z,1.67
2023-04-12T13:39:25.540Z,1.70
2023-04-12T13:41:59.304Z,1.23
2023-04-12T13:44:27.558Z,1.48
2023-04-12T13:46:54.950Z,1.35
2023-04-12T13:49:28.260Z,1.08
2023-04-12T13:51:56.342Z,1.02
2023-04-12T13:54:30.394Z,0.95
2023-04-12T13:56:58.247Z,1.20
2023-04-12T13:59:26.298Z,1.27
2023-04-12T14:02:00.633Z,1.27
2023-04-12T14:04:28.778Z,0.80
2023-04-12T14:07:03.340Z,1.55
2023-04-12T14:09:31.590Z,1.23
2023-04-12T14:12:00.169Z,1.05
2023-04-12T14:14:34.243Z,1.08
2023-04-12T14:17:02.161Z,1.83
2023-04-12T14:19:36.370Z,1.13
2023-04-12T14:22:03.885Z,1.27
2023-04-12T14:27:12.262Z,1.10
2023-04-12T14:29:46.213Z,0.70
2023-04-12T14:32:13.622Z,0.70
2023-04-12T14:34:42.841Z,1.38
2023-04-12T14:37:16.314Z,0.77
2023-04-12T14:39:44.387Z,1.13
2023-04-12T14:42:18.479Z,0.95
2023-04-12T14:44:45.698Z,0.95
2023-04-12T14:47:12.783Z,1.10
2023-04-12T14:49:46.355Z,0.88
2023-04-12T14:52:13.539Z,1.10
2023-04-12T14:54:47.317Z,1.48
2023-04-12T14:57:15.506Z,1.83
2023-04-12T14:59:42.691Z,1.60
2023-04-12T15:02:16.635Z,1.25
2023-04-12T15:04:44.030Z,1.33
2023-04-12T15:07:11.342Z,1.35
2023-04-12T15:09:45.404Z,1.40
2023-04-12T15:12:12.685Z,1.02
2023-04-12T15:14:47.385Z,1.15
2023-04-12T15:17:14.534Z,0.80
2023-04-12T15:19:41.603Z,1.48
2023-04-12T15:22:15.365Z,1.13
2023-04-12T15:24:49.263Z,1.17
2023-04-12T15:27:30.406Z,1.30
2023-04-12T15:30:01.131Z,1.15
2023-04-12T15:32:29.259Z,0.98
2023-04-12T15:35:04.817Z,1.08
2023-04-12T15:37:34.682Z,1.20
2023-04-12T15:40:02.331Z,0.90
2023-04-12T15:45:04.578Z,1.30
2023-04-12T15:47:38.432Z,1.10
2023-04-12T15:50:05.850Z,1.27
2023-04-12T15:52:33.048Z,1.00
2023-04-12T15:55:06.384Z,1.40
2023-04-12T15:57:33.800Z,1.10
2023-04-12T16:00:09.413Z,1.00
2023-04-12T16:02:37.060Z,0.98
2023-04-12T16:05:04.411Z,1.63
2023-04-12T16:07:40.354Z,1.25
2023-04-12T16:10:08.246Z,0.93
2023-04-12T16:12:42.531Z,1.00
2023-04-12T16:15:09.764Z,1.00
2023-04-12T16:17:37.442Z,1.40
2023-04-12T16:20:12.324Z,1.20
2023-04-12T16:22:40.038Z,1.30
2023-04-12T16:25:16.500Z,1.00
2023-04-12T16:27:51.287Z,1.10
2023-04-12T16:30:24.361Z,0.90
2023-04-12T16:32:59.329Z,0.90
2023-04-12T16:35:28.347Z,1.05
2023-04-12T16:38:02.420Z,0.80
2023-04-12T16:40:29.604Z,1.10
2023-04-12T16:42:57.480Z,1.63
2023-04-12T16:45:31.299Z,1.30
2023-04-12T16:47:58.624Z,1.48
2023-04-12T16:50:32.347Z,1.08
2023-04-12T16:52:59.602Z,1.50
2023-04-12T16:55:27.111Z,1.30
2023-04-12T17:00:29.248Z,1.02
2023-04-12T17:05:30.805Z,0.93
2023-04-12T17:07:57.991Z,1.38
2023-04-12T17:10:32.417Z,1.23
2023-04-12T17:12:59.761Z,1.10
2023-04-12T17:15:34.429Z,1.10
2023-04-12T17:18:05.657Z,1.17
2023-04-12T17:20:33.572Z,1.10
2023-04-12T17:23:07.254Z,1.55
2023-04-12T17:25:41.677Z,1.17
2023-04-12T17:28:22.299Z,1.23
2023-04-12T17:30:49.455Z,1.60
2023-04-12T17:33:25.582Z,1.20
2023-04-12T17:35:59.392Z,1.00
2023-04-12T17:38:26.481Z,1.27
2023-04-12T17:41:00.388Z,1.33
2023-04-12T17:43:27.472Z,0.98
2023-04-12T17:45:54.730Z,1.52
2023-04-12T17:48:28.322Z,1.60
2023-04-12T17:50:56.060Z,1.02
2023-04-12T17:53:29.483Z,1.02
2023-04-12T17:55:56.988Z,1.73
2023-04-12T17:58:24.298Z,1.52
2023-04-12T18:00:58.351Z,1.17
2023-04-12T18:03:27.464Z,1.02
2023-04-12T18:06:02.446Z,1.42
2023-04-12T18:08:29.598Z,1.58
2023-04-12T18:10:57.713Z,1.30
2023-04-12T18:13:31.390Z,1.40
2023-04-12T18:15:58.734Z,1.50
2023-04-12T18:18:26.067Z,1.52
2023-04-12T18:20:59.424Z,1.05
2023-04-12T18:23:26.637Z,1.50
2023-04-12T18:26:00.355Z,1.38
2023-04-12T18:28:34.437Z,1.35
2023-04-12T18:31:09.535Z,1.20
2023-04-12T18:33:36.714Z,1.20
2023-04-12T18:36:04.508Z,1.70
2023-04-12T18:38:40.376Z,1.38
2023-04-12T18:41:09.184Z,1.45
2023-04-12T18:43:43.529Z,1.58
2023-04-12T18:46:17.699Z,2.10
2023-04-12T18:48:55.472Z,1.90
2023-04-12T18:51:23.356Z,1.70
2023-04-12T18:53:53.862Z,1.63
2023-04-12T18:56:31.366Z,1.60
2023-04-12T18:58:58.600Z,1.10
2023-04-12T19:01:32.525Z,1.75
2023-04-12T19:04:01.312Z,1.52
2023-04-12T19:06:28.897Z,1.55
2023-04-12T19:09:02.436Z,1.50
2023-04-12T19:11:29.916Z,1.67
2023-04-12T19:14:03.491Z,1.50
2023-04-12T19:16:30.949Z,1.58
2023-04-12T19:19:00.034Z,1.50
2023-04-12T19:21:40.374Z,1.67
2023-04-12T19:24:07.721Z,1.80
2023-04-12T19:26:53.419Z,2.00
2023-04-12T19:29:27.614Z,1.90
2023-04-12T19:32:01.697Z,1.80
2023-04-12T19:34:28.932Z,2.20
2023-04-12T19:36:56.335Z,1.83
2023-04-12T19:39:30.413Z,1.90
2023-04-12T19:41:57.951Z,1.77
2023-04-12T19:46:59.562Z,1.80
2023-04-12T19:49:27.207Z,2.42
2023-04-12T19:54:30.629Z,1.70
2023-04-12T19:57:04.429Z,1.63
2023-04-12T19:59:34.185Z,2.50
2023-04-12T20:02:01.385Z,1.63
2023-04-12T20:04:35.562Z,1.98
2023-04-12T20:07:02.999Z,1.38
2023-04-12T20:09:36.437Z,2.25
2023-04-12T20:12:04.046Z,1.83
2023-04-12T20:17:07.480Z,2.22
2023-04-12T20:19:34.771Z,2.13
2023-04-12T20:22:08.483Z,1.90
2023-04-12T20:24:37.568Z,1.98
2023-04-12T20:27:19.437Z,1.98
2023-04-12T20:29:46.701Z,2.10
2023-04-12T20:32:14.378Z,1.92
2023-04-12T20:34:53.389Z,2.20
2023-04-12T20:37:20.557Z,2.17
2023-04-12T20:39:54.600Z,1.77
2023-04-12T20:42:22.856Z,1.92
2023-04-12T20:44:50.044Z,1.83
2023-04-12T20:47:25.529Z,1.90
2023-04-12T20:49:52.850Z,2.15
2023-04-12T20:52:26.353Z,2.38
2023-04-12T20:54:54.622Z,2.25
2023-04-12T20:57:21.747Z,1.90
2023-04-12T20:59:56.401Z,2.22
2023-04-12T21:02:23.868Z,1.70
2023-04-12T21:07:27.369Z,2.15
2023-04-12T21:10:01.462Z,1.90
2023-04-12T21:12:32.142Z,2.28
2023-04-12T21:15:00.722Z,1.92
2023-04-12T21:17:36.542Z,2.00
2023-04-12T21:20:13.843Z,1.75
2023-04-12T21:22:48.417Z,1.70
2023-04-12T21:25:22.867Z,1.65
2023-04-12T21:28:02.694Z,2.00
2023-04-12T21:30:30.232Z,1.63
2023-04-12T21:35:32.389Z,1.90
2023-04-12T21:37:59.531Z,2.05
2023-04-12T21:40:33.467Z,1.70
2023-04-12T21:43:01.457Z,2.28
2023-04-12T21:45:28.689Z,2.20
2023-04-12T21:48:02.420Z,2.08
2023-04-12T21:50:29.615Z,2.00
2023-04-12T21:53:03.541Z,1.50
2023-04-12T21:55:30.807Z,1.80
2023-04-12T21:57:57.921Z,1.83
2023-04-12T22:00:33.406Z,1.90
2023-04-12T22:03:00.991Z,2.03
2023-04-12T22:05:36.422Z,1.90
2023-04-12T22:08:03.856Z,2.10
2023-04-12T22:10:34.265Z,1.80
2023-04-12T22:13:09.530Z,2.10
2023-04-12T22:15:37.238Z,1.73
2023-04-12T22:18:04.587Z,2.05
2023-04-12T22:20:40.436Z,1.65
2023-04-12T22:23:07.610Z,2.13
2023-04-12T22:25:41.452Z,1.98
2023-04-12T22:28:17.074Z,1.73
2023-04-12T22:30:50.594Z,1.80
2023-04-12T22:33:17.795Z,1.90
2023-04-12T22:35:45.150Z,2.10
2023-04-12T22:38:21.432Z,2.10
2023-04-12T22:40:48.554Z,2.20
2023-04-12T22:43:24.532Z,2.40
2023-04-12T22:45:54.014Z,1.95
2023-04-12T22:48:31.418Z,1.70
2023-04-12T22:51:08.339Z,2.13
2023-04-12T22:53:35.565Z,2.00
2023-04-12T22:56:09.363Z,2.38
2023-04-12T22:58:37.404Z,1.88
2023-04-12T23:01:05.685Z,1.67
2023-04-12T23:03:39.508Z,1.85
2023-04-12T23:06:06.739Z,1.90
2023-04-12T23:08:43.528Z,2.00
2023-04-12T23:11:11.174Z,1.70
2023-04-12T23:16:14.660Z,1.80
2023-04-12T23:18:41.848Z,1.90
2023-04-12T23:21:11.833Z,1.85
2023-04-12T23:23:45.469Z,1.88
2023-04-12T23:26:33.354Z,1.92
2023-04-12T23:29:10.507Z,1.50
2023-04-12T23:31:37.952Z,2.00
2023-04-12T23:34:06.106Z,1.85
2023-04-12T23:36:40.419Z,1.90
2023-04-12T23:39:09.438Z,1.63
2023-04-12T23:41:43.478Z,2.67
2023-04-12T23:44:10.708Z,2.08
2023-04-12T23:46:38.759Z,2.00
2023-04-12T23:49:13.504Z,1.90
2023-04-12T23:51:40.859Z,1.85
2023-04-12T23:54:14.610Z,1.77
2023-04-12T23:56:41.972Z,1.90
2023-04-12T23:59:09.062Z,1.83
